Time;durP1;ratioP1;P1;durP2;ratioP2;P2;SDS_P1;SDS_P2;PMS_P1;PMS_P2;Temp;Humidity;BMP_temperature;BMP_pressure;BME280_temperature;BME280_humidity;BME280_pressure;Samples;Min_cycle;Max_cycle;Signal;HPM_P1;HPM_P2
2021/11/21 00:02:22;;;;;;;15.02;8.23;;;8.60;72.20;;;;;;2352036;53;20984;-70
2021/11/21 00:04:57;;;;;;;12.77;8.05;;;8.60;72.10;;;;;;2611476;52;20972;-70
2021/11/21 00:07:24;;;;;;;14.18;8.48;;;8.60;72.10;;;;;;2339581;53;21462;-71
2021/11/21 00:09:51;;;;;;;11.95;7.53;;;8.60;72.10;;;;;;2371301;53;21513;-70
2021/11/21 00:12:17;;;;;;;13.07;8.10;;;8.60;72.10;;;;;;2623280;52;21025;-70
2021/11/21 00:14:44;;;;;;;14.02;8.35;;;8.60;72.80;;;;;;2622622;52;20909;-70
2021/11/21 00:17:11;;;;;;;11.70;7.43;;;8.60;72.00;;;;;;2371473;53;20942;-70
2021/11/21 00:19:41;;;;;;;11.18;7.30;;;8.60;71.90;;;;;;2623442;52;21753;-70
2021/11/21 00:22:09;;;;;;;12.85;7.20;;;8.50;71.80;;;;;;2350148;53;21001;-69
2021/11/21 00:24:38;;;;;;;9.60;6.03;;;8.50;71.70;;;;;;2603472;52;21859;-70
2021/11/21 00:27:05;;;;;;;12.25;7.60;;;8.50;71.70;;;;;;2338478;54;21001;-69
2021/11/21 00:29:32;;;;;;;11.18;7.03;;;8.50;71.60;;;;;;2596613;52;20911;-70
2021/11/21 00:31:58;;;;;;;12.02;7.40;;;8.50;71.50;;;;;;2345093;54;21295;-70
2021/11/21 00:34:25;;;;;;;12.82;7.82;;;8.50;71.50;;;;;;2602444;52;21843;-69
2021/11/21 00:36:52;;;;;;;14.35;7.00;;;8.40;71.40;;;;;;2362973;53;20934;-70
2021/11/21 00:39:20;;;;;;;11.52;6.68;;;8.40;71.50;;;;;;2351679;53;21517;-69
2021/11/21 00:41:46;;;;;;;12.32;7.55;;;8.40;71.50;;;;;;2341156;53;20895;-70
2021/11/21 00:44:14;;;;;;;12.77;7.20;;;8.40;71.50;;;;;;2358288;53;20989;-70
2021/11/21 00:46:41;;;;;;;11.32;6.10;;;8.30;71.30;;;;;;2355222;53;20953;-69
2021/11/21 00:49:14;;;;;;;12.30;7.18;;;8.30;71.30;;;;;;2336911;53;21014;-69
2021/11/21 00:51:40;;;;;;;11.40;7.03;;;8.30;71.30;;;;;;2367671;53;20997;-70
2021/11/21 00:54:21;;;;;;;11.55;7.12;;;8.30;71.20;;;;;;2371891;53;20973;-69
2021/11/21 00:56:50;;;;;;;12.55;7.07;;;8.20;71.00;;;;;;2372025;53;20989;-70
2021/11/21 00:59:19;;;;;;;12.43;6.82;;;8.20;71.00;;;;;;2371236;53;21899;-70
2021/11/21 01:01:50;;;;;;;13.15;7.70;;;8.20;71.00;;;;;;2607876;52;20932;-69
2021/11/21 01:04:16;;;;;;;14.32;7.57;;;8.10;70.90;;;;;;2358487;53;20961;-70
2021/11/21 01:06:43;;;;;;;12.60;7.37;;;8.10;71.00;;;;;;2362777;53;20944;-69
2021/11/21 01:09:10;;;;;;;13.00;7.43;;;8.10;71.20;;;;;;2561880;52;21778;-69
2021/11/21 01:11:36;;;;;;;12.35;7.28;;;8.00;71.20;;;;;;2372428;53;20895;-70
2021/11/21 01:14:03;;;;;;;12.57;7.70;;;8.00;71.20;;;;;;2352827;53;20959;-69
2021/11/21 01:16:36;;;;;;;13.32;7.07;;;8.00;71.20;;;;;;2326511;54;21004;-69
2021/11/21 01:19:06;;;;;;;12.15;7.25;;;8.00;71.10;;;;;;2370262;53;20911;-70
2021/11/21 01:21:36;;;;;;;11.85;6.45;;;8.00;71.00;;;;;;2345521;53;21413;-70
2021/11/21 01:24:02;;;;;;;11.90;6.85;;;7.90;71.10;;;;;;2358630;53;21013;-69
2021/11/21 01:26:31;;;;;;;12.88;7.55;;;7.90;71.20;;;;;;2371574;53;21194;-70
2021/11/21 01:28:59;;;;;;;12.10;7.37;;;7.90;71.20;;;;;;2352251;53;21013;-69
2021/11/21 01:31:26;;;;;;;13.52;7.18;;;7.80;71.10;;;;;;2606303;52;20947;-69
2021/11/21 01:33:52;;;;;;;14.75;9.18;;;7.80;71.20;;;;;;2612718;52;20982;-69
2021/11/21 01:36:19;;;;;;;12.98;7.78;;;7.80;71.30;;;;;;2365060;53;20989;-69
2021/11/21 01:38:45;;;;;;;12.25;7.03;;;7.80;71.30;;;;;;2338590;54;20973;-70
2021/11/21 01:41:12;;;;;;;11.43;6.57;;;7.80;71.40;;;;;;2604280;52;20916;-70
2021/11/21 01:43:39;;;;;;;13.05;7.68;;;7.80;71.60;;;;;;2595611;52;20999;-70
2021/11/21 01:46:06;;;;;;;14.23;6.87;;;7.80;71.70;;;;;;2369719;53;20954;-69
2021/11/21 01:48:33;;;;;;;17.85;7.57;;;7.80;71.70;;;;;;2574627;53;20990;-69
2021/11/21 01:51:07;;;;;;;13.98;7.40;;;7.80;71.80;;;;;;2358667;53;21700;-69
2021/11/21 01:53:35;;;;;;;11.63;6.78;;;7.80;71.70;;;;;;2347618;53;21812;-70
2021/11/21 01:56:04;;;;;;;12.05;7.20;;;7.80;71.80;;;;;;2368723;53;20917;-70
2021/11/21 01:58:32;;;;;;;11.50;6.62;;;7.80;71.60;;;;;;2355422;53;20978;-69
2021/11/21 02:00:59;;;;;;;10.75;6.15;;;7.80;71.60;;;;;;2620020;52;20985;-69
2021/11/21 02:03:26;;;;;;;10.40;5.75;;;7.80;71.50;;;;;;2600480;52;21471;-70
2021/11/21 02:05:52;;;;;;;10.13;5.70;;;7.80;71.50;;;;;;2349359;53;21446;-69
2021/11/21 02:08:19;;;;;;;11.20;5.87;;;7.70;71.30;;;;;;2371335;53;20933;-68
2021/11/21 02:10:46;;;;;;;9.15;5.25;;;7.70;71.40;;;;;;2612870;52;21049;-69
2021/11/21 02:13:12;;;;;;;9.13;5.10;;;7.70;71.40;;;;;;2358692;53;21009;-69
2021/11/21 02:15:43;;;;;;;9.80;5.70;;;7.70;71.50;;;;;;2623870;52;20930;-70
2021/11/21 02:18:09;;;;;;;11.07;5.53;;;7.70;71.60;;;;;;2371728;53;21005;-67
2021/11/21 02:20:50;;;;;;;10.30;5.93;;;7.70;71.60;;;;;;2372231;53;20985;-69
2021/11/21 02:23:16;;;;;;;11.10;6.10;;;7.70;71.50;;;;;;2364031;53;21698;-69
2021/11/21 02:25:43;;;;;;;12.43;6.90;;;7.70;71.50;;;;;;2340778;53;21457;-70
2021/11/21 02:28:09;;;;;;;12.07;7.30;;;7.60;71.50;;;;;;2351869;53;21364;-69
2021/11/21 02:30:36;;;;;;;12.15;6.82;;;7.60;71.60;;;;;;2373760;53;21380;-69
2021/11/21 02:33:09;;;;;;;13.80;7.62;;;7.70;71.70;;;;;;2335197;53;21670;-69
2021/11/21 02:35:39;;;;;;;12.50;7.30;;;7.60;71.40;;;;;;2346645;53;20955;-69
2021/11/21 02:38:08;;;;;;;14.30;8.05;;;7.60;71.50;;;;;;2604038;52;20914;-70
2021/11/21 02:40:39;;;;;;;13.23;7.22;;;7.60;71.60;;;;;;2363283;53;21007;-69
2021/11/21 02:43:05;;;;;;;14.93;8.35;;;7.60;71.70;;;;;;2361731;54;21057;-69
2021/11/21 02:45:31;;;;;;;14.52;7.80;;;7.60;71.70;;;;;;2339273;53;20932;-69
2021/11/21 02:47:58;;;;;;;13.05;7.00;;;7.60;71.70;;;;;;2367449;53;20954;-69
2021/11/21 02:50:29;;;;;;;13.85;7.25;;;7.60;71.70;;;;;;2371853;53;20981;-69
2021/11/21 02:52:58;;;;;;;15.70;8.70;;;7.60;71.70;;;;;;2371608;53;21029;-70
2021/11/21 02:55:30;;;;;;;14.25;7.25;;;7.60;71.60;;;;;;2611754;52;21035;-70
2021/11/21 02:57:57;;;;;;;14.45;7.55;;;7.60;71.70;;;;;;2590308;53;21409;-69
2021/11/21 03:00:24;;;;;;;14.23;7.12;;;7.50;71.70;;;;;;2367544;53;20974;-69
2021/11/21 03:02:50;;;;;;;12.60;7.32;;;7.50;71.70;;;;;;2623635;52;20937;-69
2021/11/21 03:05:19;;;;;;;13.40;7.12;;;7.50;71.70;;;;;;2363675;53;20995;-70
2021/11/21 03:07:50;;;;;;;15.95;7.93;;;7.50;71.70;;;;;;2345116;53;20995;-69
2021/11/21 03:10:19;;;;;;;16.62;7.87;;;7.50;71.60;;;;;;2351529;53;20934;-69
2021/11/21 03:12:50;;;;;;;14.27;7.18;;;7.50;71.50;;;;;;2371847;53;20973;-70
2021/11/21 03:15:16;;;;;;;13.62;7.20;;;7.50;71.50;;;;;;2355684;53;20975;-69
2021/11/21 03:17:43;;;;;;;13.23;7.18;;;7.50;71.60;;;;;;2357695;53;20966;-69
2021/11/21 03:20:12;;;;;;;13.80;6.72;;;7.50;71.70;;;;;;2574724;53;20892;-69
2021/11/21 03:22:39;;;;;;;15.38;7.43;;;7.50;71.80;;;;;;2611544;52;20979;-69
2021/11/21 03:25:06;;;;;;;13.32;6.80;;;7.40;71.80;;;;;;2329022;54;20963;-70
2021/11/21 03:27:37;;;;;;;13.38;6.95;;;7.40;71.70;;;;;;2352276;54;20983;-69
2021/11/21 03:30:07;;;;;;;14.93;7.53;;;7.40;71.80;;;;;;2359543;54;20958;-69
2021/11/21 03:32:34;;;;;;;13.95;6.57;;;7.40;71.80;;;;;;2371655;53;21009;-68
2021/11/21 03:35:03;;;;;;;13.38;6.45;;;7.40;71.90;;;;;;2594805;52;20977;-69
2021/11/21 03:37:33;;;;;;;12.45;6.35;;;7.40;71.90;;;;;;2352379;53;20989;-69
2021/11/21 03:39:59;;;;;;;12.77;6.53;;;7.40;71.80;;;;;;2357898;53;20951;-69
2021/11/21 03:42:25;;;;;;;14.35;7.50;;;7.40;71.60;;;;;;2356383;53;20947;-69
2021/11/21 03:44:53;;;;;;;14.95;7.07;;;7.40;71.60;;;;;;2351215;53;20949;-70
2021/11/21 03:47:19;;;;;;;13.15;7.50;;;7.40;71.50;;;;;;2342718;53;20965;-69
2021/11/21 03:49:46;;;;;;;15.90;7.53;;;7.40;71.60;;;;;;2348270;53;20927;-69
2021/11/21 03:52:13;;;;;;;12.63;6.20;;;7.40;71.60;;;;;;2612155;52;20956;-70
2021/11/21 03:54:43;;;;;;;17.83;7.70;;;7.30;71.60;;;;;;2352785;53;21019;-69
2021/11/21 03:57:09;;;;;;;14.68;6.32;;;7.50;71.70;;;;;;2597172;52;21508;-69
2021/11/21 03:59:35;;;;;;;13.23;6.55;;;7.30;71.60;;;;;;2353033;53;21339;-70
2021/11/21 04:02:03;;;;;;;11.65;6.40;;;7.30;71.70;;;;;;2624537;52;21033;-69
2021/11/21 04:04:30;;;;;;;11.52;5.15;;;7.30;71.90;;;;;;2579156;52;20944;-69
2021/11/21 04:06:57;;;;;;;7.90;4.70;;;7.30;71.80;;;;;;2363354;53;20930;-69
2021/11/21 04:09:23;;;;;;;9.13;4.80;;;7.30;71.70;;;;;;2370687;53;20937;-69
2021/11/21 04:11:53;;;;;;;7.25;4.25;;;7.30;71.80;;;;;;2371563;53;20930;-69
2021/11/21 04:14:19;;;;;;;6.43;3.75;;;7.30;71.80;;;;;;2622411;52;21368;-69
2021/11/21 04:16:48;;;;;;;6.12;3.40;;;7.30;71.90;;;;;;2595936;52;21965;-69
2021/11/21 04:19:15;;;;;;;5.93;3.15;;;7.30;71.90;;;;;;2363658;53;20958;-69
2021/11/21 04:21:41;;;;;;;5.87;3.12;;;7.30;71.90;;;;;;2609698;52;20986;-69
2021/11/21 04:24:12;;;;;;;7.07;3.58;;;7.30;72.00;;;;;;2624807;52;20961;-69
2021/11/21 04:26:40;;;;;;;7.97;4.22;;;7.30;72.00;;;;;;2622988;52;21001;-69
2021/11/21 04:29:07;;;;;;;7.28;3.60;;;7.30;72.10;;;;;;2587083;52;20980;-69
2021/11/21 04:31:33;;;;;;;6.30;3.25;;;7.30;72.10;;;;;;2587345;53;21931;-69
2021/11/21 04:34:00;;;;;;;6.07;3.33;;;7.30;72.10;;;;;;2343979;53;21493;-69
2021/11/21 04:36:26;;;;;;;7.00;3.17;;;7.30;72.10;;;;;;2602016;52;21372;-69
2021/11/21 04:38:52;;;;;;;4.93;2.72;;;7.30;72.10;;;;;;2371485;53;21037;-69
2021/11/21 04:41:19;;;;;;;4.90;2.33;;;7.30;71.90;;;;;;2369524;53;21024;-70
2021/11/21 04:43:48;;;;;;;5.62;2.70;;;7.30;71.90;;;;;;2590699;53;20964;-69
2021/11/21 04:46:15;;;;;;;5.07;2.60;;;7.30;71.80;;;;;;2615694;52;20906;-70
2021/11/21 04:48:41;;;;;;;5.05;2.78;;;7.30;71.80;;;;;;2371465;53;20946;-70
2021/11/21 04:51:08;;;;;;;5.05;2.53;;;7.30;71.80;;;;;;2624860;52;21858;-69
2021/11/21 04:53:34;;;;;;;4.68;2.65;;;7.30;71.80;;;;;;2364775;53;20915;-69
2021/11/21 04:56:00;;;;;;;5.15;2.85;;;7.40;71.90;;;;;;2587017;52;21498;-69
2021/11/21 04:58:27;;;;;;;8.82;3.97;;;7.30;71.80;;;;;;2369831;53;21006;-69
2021/11/21 05:00:54;;;;;;;9.35;4.72;;;7.40;72.00;;;;;;2597471;52;20982;-68
2021/11/21 05:03:26;;;;;;;8.20;4.10;;;7.40;72.10;;;;;;2603386;52;21446;-69
2021/11/21 05:05:55;;;;;;;9.85;4.95;;;7.40;72.10;;;;;;2624623;52;21757;-69
2021/11/21 05:08:21;;;;;;;10.13;5.50;;;7.40;72.10;;;;;;2370652;53;20978;-69
2021/11/21 05:10:49;;;;;;;9.48;5.18;;;7.40;72.10;;;;;;2611784;52;21033;-69
2021/11/21 05:13:15;;;;;;;8.82;4.55;;;7.40;72.10;;;;;;2357510;53;21109;-69
2021/11/21 05:15:42;;;;;;;10.00;4.70;;;7.40;72.00;;;;;;2356307;53;20990;-69
2021/11/21 05:18:09;;;;;;;9.40;4.80;;;7.40;72.10;;;;;;2349418;53;20950;-69
2021/11/21 05:20:36;;;;;;;9.35;4.40;;;7.40;72.10;;;;;;2624174;52;20962;-69
2021/11/21 05:23:02;;;;;;;7.82;4.10;;;7.40;72.20;;;;;;2596035;52;20990;-69
2021/11/21 05:25:29;;;;;;;11.05;5.32;;;7.40;72.20;;;;;;2617229;52;21027;-69
2021/11/21 05:27:56;;;;;;;10.90;5.22;;;7.50;72.30;;;;;;2350354;53;21051;-70
2021/11/21 05:30:24;;;;;;;8.60;4.28;;;7.40;72.20;;;;;;2617312;52;21074;-69
2021/11/21 05:32:51;;;;;;;10.45;5.60;;;7.40;72.10;;;;;;2339452;54;20943;-69
2021/11/21 05:35:17;;;;;;;12.30;5.85;;;7.50;72.20;;;;;;2621842;52;21783;-69
2021/11/21 05:37:46;;;;;;;9.38;4.97;;;7.50;72.30;;;;;;2361471;53;20947;-69
2021/11/21 05:40:13;;;;;;;11.05;5.70;;;7.50;72.20;;;;;;2353186;53;21034;-69
2021/11/21 05:42:40;;;;;;;12.02;5.60;;;7.50;72.10;;;;;;2337525;54;21461;-69
2021/11/21 05:45:07;;;;;;;11.27;5.60;;;7.50;72.10;;;;;;2349997;53;20959;-69
2021/11/21 05:47:34;;;;;;;12.73;6.25;;;7.50;72.10;;;;;;2342596;53;21435;-69
2021/11/21 05:50:02;;;;;;;14.90;7.28;;;7.50;72.10;;;;;;2624886;52;21375;-69
2021/11/21 05:52:29;;;;;;;13.55;7.03;;;7.50;72.20;;;;;;2570192;53;20931;-68
2021/11/21 05:54:55;;;;;;;14.45;7.80;;;7.50;72.10;;;;;;2370807;53;20986;-70
2021/11/21 05:57:21;;;;;;;12.93;6.53;;;7.50;72.00;;;;;;2351340;53;21500;-69
2021/11/21 05:59:48;;;;;;;12.43;6.47;;;7.50;71.90;;;;;;2624732;52;21740;-70
2021/11/21 06:02:14;;;;;;;10.90;6.72;;;7.50;71.90;;;;;;2352084;53;20951;-70
2021/11/21 06:04:41;;;;;;;13.90;7.03;;;7.40;71.80;;;;;;2624289;52;20918;-69
2021/11/21 06:07:09;;;;;;;16.17;7.55;;;7.40;71.90;;;;;;2363007;53;21042;-69
2021/11/21 06:09:38;;;;;;;14.93;7.25;;;7.40;71.90;;;;;;2343513;53;20937;-69
2021/11/21 06:12:09;;;;;;;13.57;7.37;;;7.40;72.00;;;;;;2342159;54;20953;-69
2021/11/21 06:14:36;;;;;;;14.90;8.30;;;7.40;72.10;;;;;;2591946;52;20926;-69
2021/11/21 06:17:04;;;;;;;14.43;7.10;;;7.40;72.10;;;;;;2624879;52;21020;-69
2021/11/21 06:19:30;;;;;;;14.80;7.35;;;7.40;72.10;;;;;;2596053;52;21713;-69
2021/11/21 06:22:01;;;;;;;14.13;7.45;;;7.40;72.00;;;;;;2372356;53;20918;-69
2021/11/21 06:24:29;;;;;;;13.98;7.47;;;7.40;72.00;;;;;;2583545;52;21073;-70
2021/11/21 06:26:56;;;;;;;15.10;8.13;;;7.40;72.00;;;;;;2597089;52;21035;-69
2021/11/21 06:29:23;;;;;;;14.60;8.20;;;7.40;72.10;;;;;;2596465;52;21513;-70
2021/11/21 06:31:51;;;;;;;13.30;6.85;;;7.40;72.20;;;;;;2602445;52;20954;-68
2021/11/21 06:34:17;;;;;;;14.77;7.50;;;7.40;72.30;;;;;;2598700;52;20939;-69
2021/11/21 06:36:49;;;;;;;13.68;6.93;;;7.40;72.30;;;;;;2338203;54;20996;-69
2021/11/21 06:39:17;;;;;;;11.77;6.57;;;7.50;72.40;;;;;;2601220;52;20936;-70
2021/11/21 06:41:44;;;;;;;14.05;7.18;;;7.50;72.40;;;;;;2354399;53;20914;-69
2021/11/21 06:44:10;;;;;;;11.85;6.28;;;7.50;72.50;;;;;;2569659;53;20940;-69
2021/11/21 06:46:37;;;;;;;13.68;7.35;;;7.50;72.50;;;;;;2364026;53;21498;-71
2021/11/21 06:49:06;;;;;;;12.37;6.50;;;7.50;72.40;;;;;;2564218;53;20926;-69
2021/11/21 06:51:41;;;;;;;12.60;7.07;;;7.50;72.40;;;;;;2339879;53;21003;-70
2021/11/21 06:54:13;;;;;;;13.23;6.97;;;7.50;72.30;;;;;;2340949;54;20963;-69
2021/11/21 06:56:40;;;;;;;14.25;7.47;;;7.50;72.40;;;;;;2345258;54;20961;-70
2021/11/21 06:59:09;;;;;;;13.00;7.00;;;7.60;72.60;;;;;;2345960;54;21586;-68
2021/11/21 07:01:40;;;;;;;14.57;7.12;;;7.60;72.60;;;;;;2351458;53;20929;-69
2021/11/21 07:04:10;;;;;;;15.77;7.63;;;7.60;72.50;;;;;;2602727;52;21029;-70
2021/11/21 07:06:41;;;;;;;13.10;7.12;;;7.60;72.40;;;;;;2361678;53;22181;-70
2021/11/21 07:09:12;;;;;;;14.68;7.32;;;7.60;72.50;;;;;;2620918;52;21803;-69
2021/11/21 07:11:39;;;;;;;14.35;7.45;;;7.60;72.50;;;;;;2364661;53;21044;-70
2021/11/21 07:14:15;;;;;;;16.75;8.50;;;7.60;72.50;;;;;;2593812;52;20915;-70
2021/11/21 07:16:53;;;;;;;16.83;8.40;;;7.70;72.50;;;;;;2352188;53;20959;-69
2021/11/21 07:19:22;;;;;;;13.57;7.40;;;7.60;72.50;;;;;;2609354;52;20935;-69
2021/11/21 07:21:50;;;;;;;15.07;7.65;;;7.70;72.60;;;;;;2580665;52;20914;-68
2021/11/21 07:24:17;;;;;;;15.18;7.93;;;7.70;72.70;;;;;;2610437;52;20999;-69
2021/11/21 07:26:43;;;;;;;13.90;7.87;;;7.70;72.70;;;;;;2358983;53;20977;-68
2021/11/21 07:29:09;;;;;;;13.02;7.62;;;7.70;72.70;;;;;;2572383;52;20998;-69
2021/11/21 07:31:36;;;;;;;16.98;7.70;;;7.70;72.60;;;;;;2592871;52;21548;-70
2021/11/21 07:34:03;;;;;;;14.80;8.07;;;7.70;72.50;;;;;;2602261;52;20959;-68
2021/11/21 07:36:30;;;;;;;15.80;8.00;;;7.70;72.40;;;;;;2333828;54;20962;-69
2021/11/21 07:38:57;;;;;;;14.57;8.05;;;7.70;72.20;;;;;;2594991;52;21456;-69
2021/11/21 07:41:23;;;;;;;14.68;7.35;;;7.70;72.00;;;;;;2623169;52;21435;-67
2021/11/21 07:43:53;;;;;;;14.93;7.62;;;7.70;72.00;;;;;;2622987;52;20978;-69
2021/11/21 07:46:25;;;;;;;16.00;8.02;;;7.70;72.00;;;;;;2351830;53;21087;-70
2021/11/21 07:48:52;;;;;;;14.00;7.10;;;7.70;72.10;;;;;;2595221;52;20938;-70
2021/11/21 07:51:18;;;;;;;12.05;6.32;;;7.60;72.10;;;;;;2622980;52;21075;-69
2021/11/21 07:53:45;;;;;;;14.40;6.53;;;7.70;72.30;;;;;;2623453;52;21017;-69
2021/11/21 07:56:11;;;;;;;14.07;7.20;;;7.60;72.30;;;;;;2371175;53;20994;-70
2021/11/21 07:58:39;;;;;;;14.75;7.53;;;7.70;72.50;;;;;;2572597;52;21396;-70
2021/11/21 08:01:06;;;;;;;14.57;7.72;;;7.70;72.50;;;;;;2350068;53;21500;-69
2021/11/21 08:03:32;;;;;;;12.63;6.97;;;7.70;72.50;;;;;;2358195;53;21010;-68
2021/11/21 08:05:59;;;;;;;17.27;8.00;;;7.70;72.50;;;;;;2360219;53;20943;-70
2021/11/21 08:08:26;;;;;;;13.95;7.82;;;7.70;72.50;;;;;;2595308;52;20953;-70
2021/11/21 08:10:52;;;;;;;12.57;7.18;;;7.70;72.60;;;;;;2364749;53;21000;-69
2021/11/21 08:13:18;;;;;;;13.68;6.87;;;7.70;72.60;;;;;;2566573;53;21028;-70
2021/11/21 08:15:47;;;;;;;13.75;7.18;;;7.70;72.70;;;;;;2570046;53;20981;-69
2021/11/21 08:18:14;;;;;;;14.80;7.93;;;7.80;72.80;;;;;;2579721;53;21504;-69
2021/11/21 08:20:41;;;;;;;15.00;7.47;;;7.80;72.70;;;;;;2368686;53;20930;-70
2021/11/21 08:23:09;;;;;;;15.48;7.75;;;7.80;72.60;;;;;;2608473;52;20995;-70
2021/11/21 08:25:35;;;;;;;12.40;6.47;;;7.80;72.50;;;;;;2359249;53;20971;-70
2021/11/21 08:28:02;;;;;;;12.07;6.22;;;7.80;72.60;;;;;;2354312;53;20922;-69
2021/11/21 08:30:30;;;;;;;14.68;6.93;;;7.80;72.60;;;;;;2364843;53;20956;-70
2021/11/21 08:32:57;;;;;;;12.73;6.90;;;7.80;72.60;;;;;;2581765;52;20986;-70
2021/11/21 08:35:24;;;;;;;18.37;9.85;;;7.80;72.60;;;;;;2624436;52;20911;-70
2021/11/21 08:37:52;;;;;;;14.40;8.07;;;7.90;72.60;;;;;;2624602;52;21934;-70
2021/11/21 08:40:21;;;;;;;15.10;7.75;;;7.80;72.40;;;;;;2359706;53;20931;-70
2021/11/21 08:42:48;;;;;;;13.27;7.37;;;7.90;72.20;;;;;;2358995;53;20959;-70
2021/11/21 08:45:14;;;;;;;12.75;6.43;;;7.80;72.00;;;;;;2351792;54;20996;-70
2021/11/21 08:47:45;;;;;;;11.02;5.53;;;7.80;72.10;;;;;;2582094;53;20983;-70
2021/11/21 08:50:11;;;;;;;12.93;6.00;;;7.80;72.20;;;;;;2618444;52;20930;-70
2021/11/21 08:52:43;;;;;;;13.93;5.93;;;7.80;72.20;;;;;;2624733;52;21824;-70
2021/11/21 08:55:10;;;;;;;11.82;6.00;;;7.80;72.20;;;;;;2362358;53;20971;-69
2021/11/21 08:57:36;;;;;;;11.07;6.22;;;7.80;72.20;;;;;;2589967;53;20919;-69
2021/11/21 09:00:06;;;;;;;11.73;6.30;;;7.80;72.10;;;;;;2358940;53;20931;-70
2021/11/21 09:02:37;;;;;;;13.80;6.30;;;7.80;72.10;;;;;;2322283;55;20963;-70
2021/11/21 09:05:06;;;;;;;12.90;6.43;;;7.80;72.80;;;;;;2351255;54;21030;-69
2021/11/21 09:07:34;;;;;;;14.25;6.37;;;7.80;72.10;;;;;;2595626;52;21037;-70
2021/11/21 09:10:02;;;;;;;13.27;6.72;;;7.80;72.10;;;;;;2605056;52;21055;-70
2021/11/21 09:12:28;;;;;;;15.63;7.07;;;7.80;72.80;;;;;;2614203;52;20914;-70
2021/11/21 09:14:57;;;;;;;13.57;6.35;;;7.80;72.10;;;;;;2624121;52;21006;-69
2021/11/21 09:17:24;;;;;;;12.10;6.80;;;7.80;72.20;;;;;;2623930;52;20929;-70
2021/11/21 09:19:52;;;;;;;13.85;6.78;;;7.80;72.20;;;;;;2367998;53;20991;-70
2021/11/21 09:22:19;;;;;;;13.55;6.72;;;7.80;72.20;;;;;;2605843;52;21695;-70
2021/11/21 09:24:46;;;;;;;13.98;6.57;;;7.80;72.20;;;;;;2602365;52;20959;-69
2021/11/21 09:27:15;;;;;;;12.90;6.70;;;7.80;72.30;;;;;;2570397;53;20984;-70
2021/11/21 09:29:42;;;;;;;12.02;5.85;;;7.80;72.30;;;;;;2618788;52;20934;-69
2021/11/21 09:32:10;;;;;;;10.80;6.07;;;7.80;72.30;;;;;;2592380;52;20941;-69
2021/11/21 09:34:38;;;;;;;12.48;6.55;;;7.80;72.30;;;;;;2351133;53;20934;-70
2021/11/21 09:37:11;;;;;;;10.25;5.80;;;7.80;72.20;;;;;;2576280;53;26105;-69
2021/11/21 09:39:38;;;;;;;11.90;6.03;;;7.90;72.10;;;;;;2358888;53;20975;-70
2021/11/21 09:42:05;;;;;;;11.15;5.97;;;7.80;72.20;;;;;;2614977;52;21738;-69
2021/11/21 09:44:31;;;;;;;10.98;5.82;;;7.80;72.20;;;;;;2371331;53;20922;-70
2021/11/21 09:46:58;;;;;;;11.68;5.95;;;7.80;72.10;;;;;;2368160;53;21039;-70
2021/11/21 09:49:25;;;;;;;12.90;6.15;;;7.80;72.10;;;;;;2332696;54;20941;-69
2021/11/21 09:51:51;;;;;;;11.38;5.97;;;7.80;72.10;;;;;;2568158;53;20961;-70
2021/11/21 09:54:18;;;;;;;12.60;6.57;;;7.80;72.10;;;;;;2339031;54;21068;-69
2021/11/21 09:56:46;;;;;;;12.30;5.85;;;7.80;72.20;;;;;;2367579;53;21023;-71
2021/11/21 09:59:12;;;;;;;12.35;6.25;;;7.90;72.30;;;;;;2335190;54;20979;-70
2021/11/21 10:01:42;;;;;;;12.20;6.35;;;7.90;72.20;;;;;;2591178;52;20957;-69
2021/11/21 10:04:14;;;;;;;10.98;5.82;;;7.90;72.20;;;;;;2350883;54;21057;-69
2021/11/21 10:06:45;;;;;;;11.23;6.15;;;7.90;72.30;;;;;;2365566;53;21082;-68
2021/11/21 10:09:13;;;;;;;10.30;5.50;;;7.90;72.40;;;;;;2354903;53;20987;-70
2021/11/21 10:18:27;;;;;;;12.23;6.25;;;7.90;72.40;;;;;;2368664;53;21001;-70
2021/11/21 10:20:53;;;;;;;11.63;5.30;;;7.90;71.60;;;;;;2622867;52;21379;-69
2021/11/21 10:23:22;;;;;;;12.82;5.62;;;7.90;72.20;;;;;;2623992;52;20934;-70
2021/11/21 10:25:51;;;;;;;11.10;5.72;;;7.90;72.20;;;;;;2583530;53;21022;-70
2021/11/21 11:30:08;;;;;;;10.43;4.80;;;8.30;72.30;;;;;;2586074;52;21018;-70
2021/11/21 11:32:37;;;;;;;11.32;6.45;;;8.30;72.80;;;;;;2330020;54;21062;-70
2021/11/21 11:35:06;;;;;;;13.48;7.03;;;8.30;72.60;;;;;;2371183;53;21069;-70
2021/11/21 11:37:43;;;;;;;14.07;7.47;;;8.20;72.50;;;;;;2357264;53;21830;-69
2021/11/21 11:43:41;;;;;;;14.18;7.32;;;8.30;72.40;;;;;;2369881;53;21379;-70
2021/11/21 11:46:24;;;;;;;12.43;6.87;;;8.30;71.70;;;;;;2167618;54;10731682;-70
2021/11/21 11:49:04;;;;;;;13.75;7.32;;;8.30;72.30;;;;;;2327050;54;21019;-70
2021/11/21 11:51:55;;;;;;;12.95;6.68;;;8.30;72.30;;;;;;2586661;53;22105;-70
2021/11/21 11:54:26;;;;;;;11.70;6.32;;;8.30;72.10;;;;;;2587609;53;20953;-69
2021/11/21 11:57:07;;;;;;;12.63;7.20;;;8.30;72.40;;;;;;2585455;53;20969;-70
2021/11/21 11:59:51;;;;;;;13.98;7.10;;;8.30;72.20;;;;;;2560500;53;21207;-69
2021/11/21 12:02:33;;;;;;;15.65;8.75;;;8.30;72.00;;;;;;2326838;54;20937;-70
2021/11/21 12:05:03;;;;;;;13.80;7.28;;;8.30;72.20;;;;;;2329809;54;21453;-70
2021/11/21 12:07:31;;;;;;;14.20;7.72;;;8.30;72.40;;;;;;2579259;53;20937;-70
2021/11/21 12:10:09;;;;;;;19.08;11.65;;;8.30;72.50;;;;;;2564783;53;20946;-70
2021/11/21 12:12:50;;;;;;;17.15;9.45;;;8.30;72.40;;;;;;2322544;55;21095;-70
2021/11/21 12:15:54;;;;;;;16.25;9.15;;;8.30;72.20;;;;;;2342314;54;20952;-70
2021/11/21 12:18:40;;;;;;;15.95;9.07;;;8.40;72.00;;;;;;2325857;53;20962;-70
2021/11/21 12:21:06;;;;;;;17.98;9.27;;;8.40;72.60;;;;;;2560831;53;20989;-70
2021/11/21 12:24:42;;;;;;;15.63;8.32;;;8.40;72.70;;;;;;2326244;54;21369;-70
2021/11/21 12:27:22;;;;;;;13.98;7.37;;;8.50;71.90;;;;;;2523941;54;20927;-70
2021/11/21 12:30:22;;;;;;;15.48;8.23;;;8.40;72.30;;;;;;2337760;54;21378;-70
2021/11/21 12:32:59;;;;;;;17.92;8.25;;;8.50;72.20;;;;;;2553627;53;20946;-70
2021/11/21 12:35:50;;;;;;;20.35;10.55;;;8.50;72.30;;;;;;2318548;54;20948;-70
2021/11/21 12:38:35;;;;;;;15.52;8.98;;;8.50;72.00;;;;;;2565560;53;20948;-71
2021/11/21 12:41:09;;;;;;;17.50;10.75;;;8.50;71.80;;;;;;2322201;54;20937;-70
2021/11/21 12:43:35;;;;;;;12.48;7.18;;;8.50;71.90;;;;;;2586885;53;20929;-70
2021/11/21 12:46:05;;;;;;;14.07;7.18;;;8.50;71.90;;;;;;2341670;54;20992;-70
2021/11/21 12:48:34;;;;;;;14.77;7.85;;;8.50;72.00;;;;;;2588239;53;21025;-70
2021/11/21 12:51:02;;;;;;;13.20;7.18;;;8.50;71.90;;;;;;2341682;54;21049;-70
2021/11/21 12:53:48;;;;;;;12.98;6.68;;;8.50;71.70;;;;;;2343709;54;20980;-70
2021/11/21 12:56:19;;;;;;;11.85;6.40;;;8.50;72.10;;;;;;2313574;54;20898;-70
2021/11/21 12:58:46;;;;;;;11.50;6.05;;;8.50;71.80;;;;;;2558396;53;20998;-69
2021/11/21 13:01:16;;;;;;;11.07;6.47;;;8.50;71.90;;;;;;2318604;54;20949;-70
2021/11/21 13:03:43;;;;;;;11.80;6.40;;;8.50;71.90;;;;;;2313887;55;20973;-70
2021/11/21 13:06:14;;;;;;;10.80;6.12;;;8.50;72.00;;;;;;2325164;54;21468;-69
2021/11/21 13:08:47;;;;;;;10.95;6.25;;;8.50;72.10;;;;;;2307423;54;20961;-69
2021/11/21 13:11:23;;;;;;;11.80;6.62;;;8.50;72.20;;;;;;2569628;53;21014;-69
2021/11/21 13:13:51;;;;;;;10.02;5.85;;;8.50;72.20;;;;;;2556787;53;20990;-71
2021/11/21 13:16:23;;;;;;;11.40;6.53;;;8.60;72.40;;;;;;2557136;53;20951;-70
2021/11/21 13:18:50;;;;;;;11.57;6.07;;;8.60;72.40;;;;;;2573041;53;21059;-70
2021/11/21 13:21:29;;;;;;;11.40;6.07;;;8.60;72.30;;;;;;2342004;54;20914;-70
2021/11/21 13:23:59;;;;;;;11.73;5.55;;;8.60;72.00;;;;;;2555343;53;20958;-70
2021/11/21 13:26:26;;;;;;;9.30;5.40;;;8.60;72.00;;;;;;2588093;53;20973;-70
2021/11/21 13:29:05;;;;;;;10.43;5.47;;;8.60;72.00;;;;;;2342207;54;20997;-70
2021/11/21 13:31:37;;;;;;;10.65;6.10;;;8.60;71.80;;;;;;2323357;54;21771;-70
2021/11/21 13:34:13;;;;;;;12.50;6.70;;;8.60;71.80;;;;;;2319232;54;20960;-71
2021/11/21 13:36:51;;;;;;;10.88;6.70;;;8.70;72.00;;;;;;2327522;54;20905;-70
2021/11/21 13:39:24;;;;;;;11.73;6.90;;;8.70;71.80;;;;;;2564779;53;20988;-70
2021/11/21 13:42:20;;;;;;;12.73;6.40;;;8.70;72.00;;;;;;2556660;53;20985;-71
2021/11/21 13:44:47;;;;;;;11.57;6.80;;;8.70;71.50;;;;;;2530675;54;20972;-69
2021/11/21 13:47:20;;;;;;;13.88;8.20;;;8.70;71.70;;;;;;2322890;54;21717;-71
2021/11/21 13:49:49;;;;;;;13.00;6.95;;;8.70;71.60;;;;;;2587679;53;21283;-70
2021/11/21 13:52:30;;;;;;;11.73;7.07;;;8.70;71.50;;;;;;2324447;54;21109;-69
2021/11/21 13:55:02;;;;;;;12.07;7.40;;;8.60;71.00;;;;;;2570084;53;20969;-71
2021/11/21 13:57:34;;;;;;;11.40;6.75;;;8.60;71.40;;;;;;2333346;54;20953;-70
2021/11/21 14:00:01;;;;;;;11.43;6.25;;;8.60;71.40;;;;;;2559300;53;21072;-69
2021/11/21 14:02:34;;;;;;;11.35;6.40;;;8.60;71.50;;;;;;2563407;53;21038;-71
2021/11/21 14:05:12;;;;;;;11.27;6.37;;;8.60;71.50;;;;;;2580656;53;20889;-70
2021/11/21 14:08:03;;;;;;;11.57;6.00;;;8.60;71.60;;;;;;2342335;54;20969;-69
2021/11/21 14:10:34;;;;;;;9.80;5.65;;;8.60;71.30;;;;;;2588239;53;21009;-70
2021/11/21 14:13:11;;;;;;;10.60;6.07;;;8.60;71.70;;;;;;2562010;53;20947;-70